Mexico V — XCKR — position and weather

sailwx.info

Track history (hours):
 
Tides and Currents Weather Stations Pressure Air Temp Water Temp Dewpoint Dewpoint Depression Visibility Wind Speed Wind Dir Waves Ship Positions

Mexico V

Last reported at 2017-Feb-22 17:23 UTC. Time now 2017-Feb-22 17:36 UTC.
Position N 20°33' W 086°59'.

Length 40 m; draft 1.5 m.

Type: Ship. MMSI: 345110005.

Date/timePositionNaut miles runAvg speedWind from/ knotsBaromVisibWave heightAir tempDewpointWater temp
2017-Feb-22 17:23N 20°33' W 086°59'1 0.3
2017-Feb-22 15:22N 20°33' W 086°60'1 1.5
2017-Feb-22 14:34N 20°33' W 086°58'2 1.5
2017-Feb-22 13:26N 20°34' W 086°60'4 4.4
2017-Feb-22 12:34N 20°31' W 086°57'0 0.0
2017-Feb-22 11:34N 20°31' W 086°57'0 0.0
2017-Feb-22 02:31N 20°31' W 086°57'2 1.7
2017-Feb-22 01:33N 20°32' W 086°58'1 1.0
2017-Feb-22 00:22N 20°33' W 086°59'0 0.2
2017-Feb-21 23:34N 20°33' W 086°59'0 0.4
2017-Feb-21 22:19N 20°33' W 086°59'1 0.7
2017-Feb-21 21:33N 20°33' W 086°59'0 0.4
2017-Feb-21 20:22N 20°33' W 086°59'3 3.2
2017-Feb-21 19:34N 20°31' W 086°57'3 2.6
2017-Feb-21 18:33N 20°33' W 086°59'0 0.3
2017-Feb-21 17:20N 20°33' W 086°59'0 0.1
2017-Feb-21 15:18N 20°32' W 086°59'0 0.2
2017-Feb-21 14:33N 20°32' W 086°59'1 0.7
2017-Feb-21 13:18N 20°33' W 086°59'3 3.9
2017-Feb-21 12:33N 20°31' W 086°57'0 0.0
2017-Feb-21 02:33N 20°31' W 086°57'2 0.8
2017-Feb-21 00:17N 20°32' W 086°59'0 0.3
2017-Feb-20 23:34N 20°32' W 086°59'0 0.2
2017-Feb-20 22:18N 20°32' W 086°59'0 0.3
2017-Feb-20 21:33N 20°32' W 086°59'0 0.2
2017-Feb-20 20:18N 20°32' W 086°59'0 0.7
2017-Feb-20 19:33N 20°33' W 086°59'0 0.2
2017-Feb-20 18:21N 20°33' W 086°59'0 0.2
2017-Feb-20 16:23N 20°33' W 086°59'1 0.7
2017-Feb-20 15:33N 20°33' W 086°60'3 1.5
2017-Feb-20 13:33N 20°31' W 086°58'0 0.5
2017-Feb-20 12:34N 20°31' W 086°57'2 0.2
2017-Feb-20 02:33N 20°32' W 086°58'2 1.3
2017-Feb-20 01:21N 20°33' W 086°60'0 0.6
2017-Feb-20 00:34N 20°33' W 086°59'1 0.6
2017-Feb-19 23:19N 20°32' W 086°59'0 0.5
2017-Feb-19 22:33N 20°33' W 086°59'0 0.2
2017-Feb-19 21:17N 20°33' W 086°59'0 0.3
2017-Feb-19 20:33N 20°33' W 086°59'0 0.2
2017-Feb-19 19:14N 20°32' W 086°59'1 0.3
2017-Feb-19 17:19N 20°32' W 086°59'0 0.2
2017-Feb-19 15:21N 20°33' W 086°59'0 0.2
2017-Feb-19 13:18N 20°32' W 086°59'2 3.1
2017-Feb-19 12:33N 20°31' W 086°57'0 0.0
2017-Feb-19 03:05N 20°31' W 086°57'2 3.9
2017-Feb-19 02:33N 20°32' W 086°58'1 0.7
2017-Feb-19 01:19N 20°33' W 086°59'3 3.5
2017-Feb-19 00:33N 20°31' W 086°57'0 0.0
2017-Feb-18 23:33N 20°31' W 086°57'2 1.8
2017-Feb-18 22:33N 20°32' W 086°58'1 0.5
2017-Feb-18 21:18N 20°32' W 086°59'1 1.3
2017-Feb-18 20:33N 20°33' W 086°59'0 0.4
2017-Feb-18 19:20N 20°33' W 086°59'1 0.3
2017-Feb-18 17:22N 20°32' W 086°59'1 0.3
2017-Feb-18 15:18N 20°33' W 086°59'1 0.9
2017-Feb-18 14:33N 20°34' W 086°59'1 0.7
2017-Feb-18 13:18N 20°33' W 086°59'3 3.7
2017-Feb-18 12:33N 20°31' W 086°57'2 0.2
2017-Feb-18 02:34N 20°32' W 086°59'1 1.1
2017-Feb-18 01:18N 20°33' W 086°60'2 2.1
2017-Feb-18 00:34N 20°33' W 086°58'2 1.9
2017-Feb-17 23:24N 20°34' W 087°00'5 6.5
2017-Feb-17 22:34N 20°29' W 086°58'5 3.3
2017-Feb-17 21:05N 20°34' W 086°60'2 4.2
2017-Feb-17 20:34N 20°32' W 086°58'1 0.9
2017-Feb-17 19:18N 20°33' W 086°59'3 3.6
2017-Feb-17 18:34N 20°31' W 086°57'3 3.1
2017-Feb-17 17:34N 20°33' W 086°59'1 0.7
2017-Feb-17 16:19N 20°32' W 086°59'0 0.1
2017-Feb-17 14:17N 20°32' W 086°59'2 3.3
2017-Feb-17 13:33N 20°31' W 086°57'0 0.1
2017-Feb-17 12:33N 20°31' W 086°57'0 0.0
2017-Feb-17 01:33N 20°31' W 086°57'3 3.3
2017-Feb-17 00:34N 20°33' W 086°60'1 0.6
2017-Feb-16 23:18N 20°32' W 086°59'0 0.3
2017-Feb-16 22:33N 20°32' W 086°59'1 0.5
2017-Feb-16 21:14N 20°32' W 086°59'0 0.4
2017-Feb-16 20:34N 20°32' W 086°58'1 0.6
2017-Feb-16 19:18N 20°32' W 086°59'0 0.2
2017-Feb-16 17:19N 20°32' W 086°59'1 0.4
2017-Feb-16 15:16N 20°33' W 086°59'1 1.0
2017-Feb-16 14:33N 20°33' W 086°59'1 1.0
2017-Feb-16 13:24N 20°32' W 086°59'2 2.7
2017-Feb-16 12:33N 20°31' W 086°57'0 0.1
2017-Feb-16 11:33N 20°31' W 086°57'0 0.0
2017-Feb-16 02:32N 20°31' W 086°57'3 2.8
2017-Feb-16 01:34N 20°33' W 086°58'1 0.6
2017-Feb-16 00:17N 20°33' W 086°59'4 5.8
2017-Feb-15 23:34N 20°29' W 086°58'2 1.2
2017-Feb-15 22:15N 20°30' W 086°59'3 4.5
2017-Feb-15 21:33N 20°33' W 087°01'2 1.8
2017-Feb-15 20:19N 20°33' W 086°59'1 1.4
2017-Feb-15 19:34N 20°33' W 086°59'1 0.9
2017-Feb-15 18:22N 20°32' W 086°59'1 1.0
2017-Feb-15 17:33N 20°33' W 086°60'1 0.6
2017-Feb-15 16:21N 20°32' W 086°59'1 1.3
2017-Feb-15 15:33N 20°33' W 086°60'0 0.1
2017-Feb-15 14:18N 20°33' W 086°60'3 4.7
2017-Feb-15 13:33N 20°31' W 086°57'0 0.0
2017-Feb-15 12:33N 20°31' W 086°57'3 0.2
2017-Feb-15 01:34N 20°33' W 086°59'0 0.1
2017-Feb-15 00:18N 20°33' W 086°59'3 3.8
2017-Feb-14 23:34N 20°31' W 086°57'2 1.9
2017-Feb-14 22:34N 20°29' W 086°58'0 0.1
2017-Feb-14 20:33N 20°29' W 086°59'2 1.0
2017-Feb-14 18:33N 20°31' W 086°57'0 0.1
2017-Feb-14 17:33N 20°31' W 086°57'3 1.0
2017-Feb-14 14:28N 20°33' W 086°59'4 2.3
2017-Feb-14 12:33N 20°29' W 086°59'0 0.0
2017-Feb-14 11:33N 20°29' W 086°59'2 0.3
2017-Feb-14 02:18N 20°31' W 086°57'2 2.7
2017-Feb-14 01:33N 20°32' W 086°58'1 1.0
2017-Feb-14 00:21N 20°33' W 086°59'3 4.0
2017-Feb-13 23:33N 20°31' W 086°57'2 1.9
2017-Feb-13 22:33N 20°32' W 086°58'1 0.5
2017-Feb-13 21:16N 20°33' W 086°59'0 0.5
2017-Feb-13 20:34N 20°32' W 086°59'0 0.3
2017-Feb-13 19:17N 20°33' W 086°59'0 0.5
2017-Feb-13 18:34N 20°33' W 086°59'0 0.1
2017-Feb-13 17:22N 20°33' W 086°59'0 0.2
2017-Feb-13 15:17N 20°32' W 086°59'0 0.1
2017-Feb-13 13:20N 20°33' W 086°59'3 3.5
2017-Feb-13 12:33N 20°31' W 086°57'0 0.0
2017-Feb-13 01:33N 20°31' W 086°57'3 1.3
2017-Feb-12 23:25N 20°33' W 086°59'0 0.1
2017-Feb-12 22:33N 20°33' W 086°59'0 0.2
2017-Feb-12 21:18N 20°33' W 086°59'3 3.5
2017-Feb-12 20:34N 20°31' W 086°57'3 2.9
2017-Feb-12 19:33N 20°33' W 086°59'0 0.1
2017-Feb-12 18:21N 20°33' W 086°59'3 3.7
2017-Feb-12 17:33N 20°31' W 086°57'  
Track history (hours):
 
Tides and Currents Weather Stations Pressure Air Temp Water Temp Dewpoint Dewpoint Depression Visibility Wind Speed Wind Dir Waves Ship Positions

Mexico V

Last reported at 2017-Feb-22 17:23 UTC. Time now 2017-Feb-22 17:36 UTC.
Position N 20°33' W 086°59'.

Length 40 m; draft 1.5 m.

Type: Ship. MMSI: 345110005.

Date/timePositionNaut miles runAvg speedWind from/ knotsBaromVisibWave heightAir tempDewpointWater temp
2017-Feb-22 17:23N 20°33' W 086°59'1 0.3
2017-Feb-22 15:22N 20°33' W 086°60'1 1.5
2017-Feb-22 14:34N 20°33' W 086°58'2 1.5
2017-Feb-22 13:26N 20°34' W 086°60'4 4.4
2017-Feb-22 12:34N 20°31' W 086°57'0 0.0
2017-Feb-22 11:34N 20°31' W 086°57'0 0.0
2017-Feb-22 02:31N 20°31' W 086°57'2 1.7
2017-Feb-22 01:33N 20°32' W 086°58'1 1.0
2017-Feb-22 00:22N 20°33' W 086°59'0 0.2
2017-Feb-21 23:34N 20°33' W 086°59'0 0.4
2017-Feb-21 22:19N 20°33' W 086°59'1 0.7
2017-Feb-21 21:33N 20°33' W 086°59'0 0.4
2017-Feb-21 20:22N 20°33' W 086°59'3 3.2
2017-Feb-21 19:34N 20°31' W 086°57'3 2.6
2017-Feb-21 18:33N 20°33' W 086°59'0 0.3
2017-Feb-21 17:20N 20°33' W 086°59'0 0.1
2017-Feb-21 15:18N 20°32' W 086°59'0 0.2
2017-Feb-21 14:33N 20°32' W 086°59'1 0.7
2017-Feb-21 13:18N 20°33' W 086°59'3 3.9
2017-Feb-21 12:33N 20°31' W 086°57'0 0.0
2017-Feb-21 02:33N 20°31' W 086°57'2 0.8
2017-Feb-21 00:17N 20°32' W 086°59'0 0.3
2017-Feb-20 23:34N 20°32' W 086°59'0 0.2
2017-Feb-20 22:18N 20°32' W 086°59'0 0.3
2017-Feb-20 21:33N 20°32' W 086°59'0 0.2
2017-Feb-20 20:18N 20°32' W 086°59'0 0.7
2017-Feb-20 19:33N 20°33' W 086°59'0 0.2
2017-Feb-20 18:21N 20°33' W 086°59'0 0.2
2017-Feb-20 16:23N 20°33' W 086°59'1 0.7
2017-Feb-20 15:33N 20°33' W 086°60'3 1.5
2017-Feb-20 13:33N 20°31' W 086°58'0 0.5
2017-Feb-20 12:34N 20°31' W 086°57'2 0.2
2017-Feb-20 02:33N 20°32' W 086°58'2 1.3
2017-Feb-20 01:21N 20°33' W 086°60'0 0.6
2017-Feb-20 00:34N 20°33' W 086°59'1 0.6
2017-Feb-19 23:19N 20°32' W 086°59'0 0.5
2017-Feb-19 22:33N 20°33' W 086°59'0 0.2
2017-Feb-19 21:17N 20°33' W 086°59'0 0.3
2017-Feb-19 20:33N 20°33' W 086°59'0 0.2
2017-Feb-19 19:14N 20°32' W 086°59'1 0.3
2017-Feb-19 17:19N 20°32' W 086°59'0 0.2
2017-Feb-19 15:21N 20°33' W 086°59'0 0.2
2017-Feb-19 13:18N 20°32' W 086°59'2 3.1
2017-Feb-19 12:33N 20°31' W 086°57'0 0.0
2017-Feb-19 03:05N 20°31' W 086°57'2 3.9
2017-Feb-19 02:33N 20°32' W 086°58'1 0.7
2017-Feb-19 01:19N 20°33' W 086°59'3 3.5
2017-Feb-19 00:33N 20°31' W 086°57'0 0.0
2017-Feb-18 23:33N 20°31' W 086°57'2 1.8
2017-Feb-18 22:33N 20°32' W 086°58'1 0.5
2017-Feb-18 21:18N 20°32' W 086°59'1 1.3
2017-Feb-18 20:33N 20°33' W 086°59'0 0.4
2017-Feb-18 19:20N 20°33' W 086°59'1 0.3
2017-Feb-18 17:22N 20°32' W 086°59'1 0.3
2017-Feb-18 15:18N 20°33' W 086°59'1 0.9
2017-Feb-18 14:33N 20°34' W 086°59'1 0.7
2017-Feb-18 13:18N 20°33' W 086°59'3 3.7
2017-Feb-18 12:33N 20°31' W 086°57'2 0.2
2017-Feb-18 02:34N 20°32' W 086°59'1 1.1
2017-Feb-18 01:18N 20°33' W 086°60'2 2.1
2017-Feb-18 00:34N 20°33' W 086°58'2 1.9
2017-Feb-17 23:24N 20°34' W 087°00'5 6.5
2017-Feb-17 22:34N 20°29' W 086°58'5 3.3
2017-Feb-17 21:05N 20°34' W 086°60'2 4.2
2017-Feb-17 20:34N 20°32' W 086°58'1 0.9
2017-Feb-17 19:18N 20°33' W 086°59'3 3.6
2017-Feb-17 18:34N 20°31' W 086°57'3 3.1
2017-Feb-17 17:34N 20°33' W 086°59'1 0.7
2017-Feb-17 16:19N 20°32' W 086°59'0 0.1
2017-Feb-17 14:17N 20°32' W 086°59'2 3.3
2017-Feb-17 13:33N 20°31' W 086°57'0 0.1
2017-Feb-17 12:33N 20°31' W 086°57'0 0.0
2017-Feb-17 01:33N 20°31' W 086°57'3 3.3
2017-Feb-17 00:34N 20°33' W 086°60'1 0.6
2017-Feb-16 23:18N 20°32' W 086°59'0 0.3
2017-Feb-16 22:33N 20°32' W 086°59'1 0.5
2017-Feb-16 21:14N 20°32' W 086°59'0 0.4
2017-Feb-16 20:34N 20°32' W 086°58'1 0.6
2017-Feb-16 19:18N 20°32' W 086°59'0 0.2
2017-Feb-16 17:19N 20°32' W 086°59'1 0.4
2017-Feb-16 15:16N 20°33' W 086°59'1 1.0
2017-Feb-16 14:33N 20°33' W 086°59'1 1.0
2017-Feb-16 13:24N 20°32' W 086°59'2 2.7
2017-Feb-16 12:33N 20°31' W 086°57'0 0.1
2017-Feb-16 11:33N 20°31' W 086°57'0 0.0
2017-Feb-16 02:32N 20°31' W 086°57'3 2.8
2017-Feb-16 01:34N 20°33' W 086°58'1 0.6
2017-Feb-16 00:17N 20°33' W 086°59'4 5.8
2017-Feb-15 23:34N 20°29' W 086°58'2 1.2
2017-Feb-15 22:15N 20°30' W 086°59'3 4.5
2017-Feb-15 21:33N 20°33' W 087°01'2 1.8
2017-Feb-15 20:19N 20°33' W 086°59'1 1.4
2017-Feb-15 19:34N 20°33' W 086°59'1 0.9
2017-Feb-15 18:22N 20°32' W 086°59'1 1.0
2017-Feb-15 17:33N 20°33' W 086°60'1 0.6
2017-Feb-15 16:21N 20°32' W 086°59'1 1.3
2017-Feb-15 15:33N 20°33' W 086°60'0 0.1
2017-Feb-15 14:18N 20°33' W 086°60'3 4.7
2017-Feb-15 13:33N 20°31' W 086°57'0 0.0
2017-Feb-15 12:33N 20°31' W 086°57'3 0.2
2017-Feb-15 01:34N 20°33' W 086°59'0 0.1
2017-Feb-15 00:18N 20°33' W 086°59'3 3.8
2017-Feb-14 23:34N 20°31' W 086°57'2 1.9
2017-Feb-14 22:34N 20°29' W 086°58'0 0.1
2017-Feb-14 20:33N 20°29' W 086°59'2 1.0
2017-Feb-14 18:33N 20°31' W 086°57'0 0.1
2017-Feb-14 17:33N 20°31' W 086°57'3 1.0
2017-Feb-14 14:28N 20°33' W 086°59'4 2.3
2017-Feb-14 12:33N 20°29' W 086°59'0 0.0
2017-Feb-14 11:33N 20°29' W 086°59'2 0.3
2017-Feb-14 02:18N 20°31' W 086°57'2 2.7
2017-Feb-14 01:33N 20°32' W 086°58'1 1.0
2017-Feb-14 00:21N 20°33' W 086°59'3 4.0
2017-Feb-13 23:33N 20°31' W 086°57'2 1.9
2017-Feb-13 22:33N 20°32' W 086°58'1 0.5
2017-Feb-13 21:16N 20°33' W 086°59'0 0.5
2017-Feb-13 20:34N 20°32' W 086°59'0 0.3
2017-Feb-13 19:17N 20°33' W 086°59'0 0.5
2017-Feb-13 18:34N 20°33' W 086°59'0 0.1
2017-Feb-13 17:22N 20°33' W 086°59'0 0.2
2017-Feb-13 15:17N 20°32' W 086°59'0 0.1
2017-Feb-13 13:20N 20°33' W 086°59'3 3.5
2017-Feb-13 12:33N 20°31' W 086°57'0 0.0
2017-Feb-13 01:33N 20°31' W 086°57'3 1.3
2017-Feb-12 23:25N 20°33' W 086°59'0 0.1
2017-Feb-12 22:33N 20°33' W 086°59'0 0.2
2017-Feb-12 21:18N 20°33' W 086°59'3 3.5
2017-Feb-12 20:34N 20°31' W 086°57'3 2.9
2017-Feb-12 19:33N 20°33' W 086°59'0 0.1
2017-Feb-12 18:21N 20°33' W 086°59'3 3.7
2017-Feb-12 17:33N 20°31' W 086°57'  

Dump ship's entire track history